createdAt,value
2018-03-12T00:00:36.521Z,0.00
2018-03-12T00:01:36.473Z,0.00
2018-03-12T00:02:36.440Z,0.00
2018-03-12T00:03:36.407Z,0.00
2018-03-12T00:04:36.376Z,0.00
2018-03-12T00:05:36.322Z,0.00
2018-03-12T00:06:36.336Z,0.00
2018-03-12T00:07:36.251Z,0.00
2018-03-12T00:08:37.131Z,0.00
2018-03-12T00:09:36.214Z,0.00
2018-03-12T00:10:36.159Z,0.00
2018-03-12T00:11:36.122Z,0.00
2018-03-12T00:12:36.116Z,0.00
2018-03-12T00:13:36.059Z,0.00
2018-03-12T00:14:36.018Z,0.00
2018-03-12T00:15:35.951Z,0.00
2018-03-12T00:16:35.915Z,0.00
2018-03-12T00:17:35.872Z,0.00
2018-03-12T00:18:35.836Z,0.00
2018-03-12T00:19:35.801Z,0.00
2018-03-12T00:20:35.757Z,0.00
2018-03-12T00:21:35.725Z,0.00
2018-03-12T00:22:35.717Z,0.00
2018-03-12T00:23:35.652Z,0.00
2018-03-12T00:24:35.618Z,0.00
2018-03-12T00:25:35.616Z,0.00
2018-03-12T00:26:35.532Z,0.00
2018-03-12T00:27:35.537Z,0.00
2018-03-12T00:28:35.478Z,0.00
2018-03-12T00:29:35.429Z,0.00
2018-03-12T00:30:35.435Z,0.00
2018-03-12T00:31:35.344Z,0.00
2018-03-12T00:32:35.308Z,0.00
2018-03-12T00:33:35.272Z,0.00
2018-03-12T00:34:35.234Z,0.00
2018-03-12T00:35:35.236Z,0.00
2018-03-12T00:36:35.173Z,0.00
2018-03-12T00:37:35.128Z,0.00
2018-03-12T00:38:35.083Z,0.00
2018-03-12T00:39:35.092Z,0.00
2018-03-12T00:40:35.008Z,0.00
2018-03-12T00:41:34.973Z,0.00
2018-03-12T00:42:34.922Z,0.00
2018-03-12T00:43:34.938Z,0.00
2018-03-12T00:44:34.844Z,0.00
2018-03-12T00:45:34.816Z,0.00
2018-03-12T00:46:34.790Z,0.00
2018-03-12T00:47:34.741Z,0.00
2018-03-12T00:48:34.716Z,0.00
2018-03-12T00:49:34.675Z,0.00
2018-03-12T00:50:34.624Z,0.00
2018-03-12T00:51:34.617Z,0.00
2018-03-12T00:52:34.549Z,0.00
2018-03-12T00:53:34.510Z,0.00
2018-03-12T00:54:34.468Z,0.00
2018-03-12T00:55:34.458Z,0.00
2018-03-12T00:56:34.428Z,0.00
2018-03-12T00:57:34.390Z,0.00
2018-03-12T00:58:34.321Z,0.00
2018-03-12T00:59:34.292Z,0.00
2018-03-12T01:00:34.235Z,0.00
2018-03-12T01:01:34.247Z,0.00
2018-03-12T01:02:34.176Z,0.00
2018-03-12T01:03:34.135Z,0.00
2018-03-12T01:04:34.084Z,0.00
2018-03-12T01:05:34.065Z,0.00
2018-03-12T01:06:34.017Z,0.00
2018-03-12T01:07:33.982Z,0.00
2018-03-12T01:08:33.933Z,0.00
2018-03-12T01:09:33.941Z,0.00
2018-03-12T01:10:33.875Z,0.00
2018-03-12T01:11:33.860Z,0.00
2018-03-12T01:12:33.786Z,0.00
2018-03-12T01:13:33.742Z,0.00
2018-03-12T01:14:33.699Z,0.00
2018-03-12T01:15:33.704Z,0.00
2018-03-12T01:16:33.627Z,0.00
2018-03-12T01:17:33.612Z,0.00
2018-03-12T01:18:33.608Z,0.00
2018-03-12T01:19:33.527Z,0.00
2018-03-12T01:20:33.472Z,0.00
2018-03-12T01:21:33.454Z,0.00
2018-03-12T01:22:33.406Z,0.00
2018-03-12T01:23:33.359Z,0.00
2018-03-12T01:24:33.355Z,0.00
2018-03-12T01:25:33.282Z,0.00
2018-03-12T01:26:33.263Z,0.00
2018-03-12T01:27:33.211Z,0.00
2018-03-12T01:28:33.186Z,0.00
2018-03-12T01:29:33.143Z,0.00
2018-03-12T01:30:33.086Z,0.00
2018-03-12T01:31:33.061Z,0.00
2018-03-12T01:32:33.011Z,0.00
2018-03-12T01:33:32.983Z,0.00
2018-03-12T01:34:32.966Z,0.00
2018-03-12T01:35:32.919Z,0.00
2018-03-12T01:36:32.858Z,0.00
2018-03-12T01:37:32.865Z,0.00
2018-03-12T01:38:32.790Z,0.00
2018-03-12T01:39:32.745Z,0.00
2018-03-12T01:40:32.701Z,0.00
2018-03-12T01:41:32.661Z,0.00
2018-03-12T01:42:32.626Z,0.00
2018-03-12T01:43:32.628Z,0.00
2018-03-12T01:44:32.547Z,0.00
2018-03-12T01:45:32.592Z,0.00
2018-03-12T01:46:32.491Z,0.00
2018-03-12T01:47:32.434Z,0.00
2018-03-12T01:48:32.439Z,0.00
2018-03-12T01:49:32.365Z,0.00
2018-03-12T01:50:32.332Z,0.00
2018-03-12T01:51:32.293Z,0.00
2018-03-12T01:52:32.273Z,0.00
2018-03-12T01:53:32.206Z,0.00
2018-03-12T01:54:32.181Z,0.00
2018-03-12T01:55:32.141Z,0.00
2018-03-12T01:56:32.111Z,0.00
2018-03-12T01:57:32.055Z,0.00
2018-03-12T01:58:32.060Z,0.00
2018-03-12T01:59:31.983Z,0.00
2018-03-12T02:00:31.976Z,0.00
2018-03-12T02:01:31.927Z,0.00
2018-03-12T02:02:31.870Z,0.00
2018-03-12T02:03:31.832Z,0.00
2018-03-12T02:04:31.794Z,0.00
2018-03-12T02:05:31.769Z,0.00
2018-03-12T02:06:31.715Z,0.00
2018-03-12T02:07:31.677Z,0.00
2018-03-12T02:08:31.658Z,0.00
2018-03-12T02:09:31.620Z,0.00
2018-03-12T02:10:31.567Z,0.00
2018-03-12T02:11:31.539Z,0.00
2018-03-12T02:12:31.509Z,0.00
2018-03-12T02:13:31.447Z,0.00
2018-03-12T02:14:31.425Z,0.00
2018-03-12T02:15:31.377Z,0.00
2018-03-12T02:16:31.349Z,0.00
2018-03-12T02:17:31.325Z,0.00
2018-03-12T02:18:31.262Z,0.00
2018-03-12T02:19:31.218Z,0.00
2018-03-12T02:20:31.201Z,0.00
2018-03-12T02:21:31.149Z,0.00
2018-03-12T02:22:31.108Z,0.00
2018-03-12T02:23:31.105Z,0.00
2018-03-12T02:24:31.046Z,0.00
2018-03-12T02:25:30.994Z,0.00
2018-03-12T02:26:30.983Z,0.00
2018-03-12T02:27:30.915Z,0.00
2018-03-12T02:28:30.904Z,0.00
2018-03-12T02:29:30.843Z,0.00
2018-03-12T02:30:30.817Z,0.00
2018-03-12T02:31:30.780Z,0.00
2018-03-12T02:32:30.723Z,0.00
2018-03-12T02:33:30.702Z,0.00
2018-03-12T02:34:30.659Z,0.00
2018-03-12T02:35:30.613Z,0.00
2018-03-12T02:36:30.626Z,0.00
2018-03-12T02:37:30.544Z,0.00
2018-03-12T02:38:30.502Z,0.00
2018-03-12T02:39:30.461Z,0.00
2018-03-12T02:40:30.433Z,0.00
2018-03-12T02:41:30.394Z,0.00
2018-03-12T02:42:30.338Z,0.00
2018-03-12T02:43:30.316Z,0.00
2018-03-12T02:44:30.272Z,0.00
2018-03-12T02:45:30.246Z,0.00
2018-03-12T02:46:30.197Z,0.00
2018-03-12T02:47:30.188Z,0.00
2018-03-12T02:48:30.153Z,0.00
2018-03-12T02:49:30.096Z,0.00
2018-03-12T02:50:30.083Z,0.00
2018-03-12T02:51:30.017Z,0.00
2018-03-12T02:52:29.992Z,0.00
2018-03-12T02:53:29.950Z,0.00
2018-03-12T02:54:29.889Z,0.00
2018-03-12T02:55:29.862Z,0.00
2018-03-12T02:56:29.837Z,0.00
2018-03-12T02:57:29.774Z,0.00
2018-03-12T02:58:29.739Z,0.00
2018-03-12T02:59:29.750Z,0.00
2018-03-12T03:00:29.661Z,0.00
2018-03-12T03:01:29.629Z,0.00
2018-03-12T03:02:29.604Z,0.00
2018-03-12T03:03:29.570Z,0.00
2018-03-12T03:04:29.548Z,0.00
2018-03-12T03:05:29.495Z,0.00
2018-03-12T03:06:29.429Z,0.00
2018-03-12T03:07:29.397Z,0.00
2018-03-12T03:08:29.358Z,0.00
2018-03-12T03:09:29.316Z,0.00
2018-03-12T03:10:29.277Z,0.00
2018-03-12T03:11:29.241Z,0.00
2018-03-12T03:12:29.237Z,0.00
2018-03-12T03:13:29.183Z,0.00
2018-03-12T03:14:31.095Z,0.00
2018-03-12T03:15:29.087Z,0.00
2018-03-12T03:16:29.596Z,0.00
2018-03-12T03:17:29.013Z,0.00
2018-03-12T03:18:29.008Z,0.00
2018-03-12T03:19:28.931Z,0.00
2018-03-12T03:20:28.899Z,0.00
2018-03-12T03:21:28.873Z,0.00
2018-03-12T03:22:28.818Z,0.00
2018-03-12T03:23:28.788Z,0.00
2018-03-12T03:24:28.745Z,0.00
2018-03-12T03:25:28.709Z,0.00
2018-03-12T03:26:28.735Z,0.00
2018-03-12T03:27:28.632Z,0.00
2018-03-12T03:28:28.632Z,0.00
2018-03-12T03:29:28.575Z,0.00
2018-03-12T03:30:28.524Z,0.00
2018-03-12T03:31:28.488Z,0.00
2018-03-12T03:32:28.445Z,0.00
2018-03-12T03:33:28.471Z,0.00
2018-03-12T03:34:28.396Z,0.00
2018-03-12T03:35:28.351Z,0.00
2018-03-12T03:36:28.310Z,0.00
2018-03-12T03:37:28.256Z,0.00
2018-03-12T03:38:28.215Z,0.00
2018-03-12T03:39:28.176Z,0.00
2018-03-12T03:40:28.138Z,0.00
2018-03-12T03:41:28.100Z,0.00
2018-03-12T03:42:28.080Z,0.00
2018-03-12T03:43:28.025Z,0.00
2018-03-12T03:44:28.031Z,0.00
2018-03-12T03:45:27.951Z,0.00
2018-03-12T03:46:27.937Z,0.00
2018-03-12T03:47:27.889Z,0.00
2018-03-12T03:48:27.836Z,0.00
2018-03-12T03:49:27.817Z,0.00
2018-03-12T03:50:27.762Z,0.00
2018-03-12T03:51:27.728Z,0.00
2018-03-12T03:52:27.689Z,0.00
2018-03-12T03:53:27.691Z,0.00
2018-03-12T03:54:27.607Z,0.00
2018-03-12T03:55:27.566Z,0.00
2018-03-12T03:56:27.541Z,0.00
2018-03-12T03:57:27.506Z,0.00
2018-03-12T03:58:27.460Z,0.00
2018-03-12T03:59:27.419Z,0.00
2018-03-12T04:00:27.386Z,0.00
2018-03-12T04:01:27.356Z,0.00
2018-03-12T04:02:27.320Z,0.00
2018-03-12T04:03:27.292Z,0.00
2018-03-12T04:04:27.254Z,0.00
2018-03-12T04:05:27.215Z,0.00
2018-03-12T04:06:27.157Z,0.00
2018-03-12T04:07:27.137Z,0.00
2018-03-12T04:08:27.109Z,0.00
2018-03-12T04:09:27.048Z,0.00
2018-03-12T04:10:27.011Z,0.00
2018-03-12T04:11:26.985Z,0.00
2018-03-12T04:12:26.930Z,0.00
2018-03-12T04:13:26.921Z,0.00
2018-03-12T04:14:26.854Z,0.00
2018-03-12T04:15:26.839Z,0.00
2018-03-12T04:16:26.784Z,0.00
2018-03-12T04:17:26.770Z,0.00
2018-03-12T04:18:26.715Z,0.00
2018-03-12T04:19:26.679Z,0.00
2018-03-12T04:20:26.671Z,0.00
2018-03-12T04:21:26.606Z,0.00
2018-03-12T04:22:26.600Z,0.00
2018-03-12T04:23:26.616Z,0.00
2018-03-12T04:24:26.492Z,0.00
2018-03-12T04:25:26.451Z,0.00
2018-03-12T04:26:26.405Z,0.00
2018-03-12T04:27:26.370Z,0.00
2018-03-12T04:28:26.351Z,0.00
2018-03-12T04:29:26.335Z,0.00
2018-03-12T04:30:26.255Z,0.00
2018-03-12T04:31:26.244Z,0.00
2018-03-12T04:32:26.254Z,0.00
2018-03-12T04:33:26.148Z,0.00
2018-03-12T04:34:26.137Z,0.00
2018-03-12T04:35:26.086Z,0.00
2018-03-12T04:36:26.039Z,0.00
2018-03-12T04:37:25.995Z,0.00
2018-03-12T04:38:25.961Z,0.00
2018-03-12T04:39:25.924Z,0.00
2018-03-12T04:40:25.983Z,0.00
2018-03-12T04:41:25.872Z,0.00
2018-03-12T04:42:25.808Z,0.00
2018-03-12T04:43:25.784Z,0.00
2018-03-12T04:44:25.736Z,0.00
2018-03-12T04:45:25.705Z,0.00
2018-03-12T04:46:25.676Z,0.00
2018-03-12T04:47:25.620Z,0.00
2018-03-12T04:48:25.588Z,0.00
2018-03-12T04:49:25.554Z,0.00
2018-03-12T04:50:25.520Z,0.00
2018-03-12T04:51:25.482Z,0.00
2018-03-12T04:52:25.434Z,0.00
2018-03-12T04:53:25.442Z,0.00
2018-03-12T04:54:25.370Z,0.00
2018-03-12T04:55:25.347Z,0.00
2018-03-12T04:56:25.309Z,0.00
2018-03-12T04:57:25.248Z,0.00
2018-03-12T04:58:25.212Z,0.00
2018-03-12T04:59:25.176Z,0.00
2018-03-12T05:00:25.139Z,0.00
2018-03-12T05:01:25.096Z,0.00
2018-03-12T05:02:25.060Z,0.00
2018-03-12T05:03:25.026Z,0.00
2018-03-12T05:04:25.221Z,0.00
2018-03-12T05:05:24.944Z,0.00
2018-03-12T05:06:24.912Z,0.00
2018-03-12T05:07:24.879Z,0.00
2018-03-12T05:08:24.837Z,0.00
2018-03-12T05:09:24.802Z,0.00
2018-03-12T05:10:24.761Z,0.00
2018-03-12T05:11:24.728Z,0.00
2018-03-12T05:12:24.688Z,0.00
2018-03-12T05:13:24.652Z,0.00
2018-03-12T05:14:24.613Z,0.00
2018-03-12T05:15:24.579Z,0.00
2018-03-12T05:16:24.541Z,0.00
2018-03-12T05:17:24.503Z,0.00
2018-03-12T05:18:24.466Z,0.00
2018-03-12T05:19:24.430Z,0.00
2018-03-12T05:20:24.410Z,0.00
2018-03-12T05:21:24.351Z,0.00
2018-03-12T05:22:24.315Z,0.00
2018-03-12T05:23:24.282Z,0.00
2018-03-12T05:24:24.239Z,0.00
2018-03-12T05:25:24.206Z,0.00
2018-03-12T05:26:24.166Z,0.00
2018-03-12T05:27:24.131Z,0.00
2018-03-12T05:28:24.090Z,0.00
2018-03-12T05:29:24.053Z,0.00
2018-03-12T05:30:24.022Z,0.00
2018-03-12T05:31:23.980Z,0.00
2018-03-12T05:32:23.939Z,0.00
2018-03-12T05:33:23.898Z,0.00
2018-03-12T05:34:23.867Z,0.00
2018-03-12T05:35:23.831Z,0.00
2018-03-12T05:36:23.789Z,0.00
2018-03-12T05:37:23.749Z,0.00
2018-03-12T05:38:23.716Z,0.00
2018-03-12T05:39:23.677Z,4.00
2018-03-12T05:40:23.639Z,4.00
2018-03-12T05:41:23.603Z,4.00
2018-03-12T05:42:23.626Z,4.00
2018-03-12T05:43:23.526Z,0.00
2018-03-12T05:44:23.486Z,0.00
2018-03-12T05:45:23.455Z,4.00
2018-03-12T05:46:23.417Z,4.00
2018-03-12T05:47:23.378Z,4.00
2018-03-12T05:48:23.350Z,4.00
2018-03-12T05:49:23.297Z,8.00
2018-03-12T05:50:23.263Z,4.00
2018-03-12T05:51:23.231Z,4.00
2018-03-12T05:52:23.188Z,4.00
2018-03-12T05:53:23.149Z,8.00
2018-03-12T05:54:23.111Z,8.00
2018-03-12T05:55:23.077Z,8.00
2018-03-12T05:56:23.036Z,8.00
2018-03-12T05:57:23.001Z,8.00
2018-03-12T05:58:22.964Z,8.00
2018-03-12T05:59:22.926Z,12.00
2018-03-12T06:00:22.887Z,8.00
2018-03-12T06:01:22.849Z,12.00
2018-03-12T06:02:22.815Z,12.00
2018-03-12T06:03:22.773Z,12.00
2018-03-12T06:04:22.751Z,16.00
2018-03-12T06:05:22.695Z,16.00
2018-03-12T06:06:22.661Z,16.00
2018-03-12T06:07:22.622Z,20.00
2018-03-12T06:08:22.586Z,16.00
2018-03-12T06:09:22.547Z,20.00
2018-03-12T06:10:22.511Z,24.00
2018-03-12T06:11:22.472Z,24.00
2018-03-12T06:12:22.434Z,28.00
2018-03-12T06:13:22.397Z,32.00
2018-03-12T06:14:22.359Z,32.00
2018-03-12T06:15:22.320Z,36.00
2018-03-12T06:16:22.285Z,44.00
2018-03-12T06:17:22.245Z,48.00
2018-03-12T06:18:22.207Z,52.00
2018-03-12T06:19:22.172Z,56.00
2018-03-12T06:20:22.133Z,60.00
2018-03-12T06:21:22.109Z,68.00
2018-03-12T06:22:22.059Z,72.00
2018-03-12T06:23:22.018Z,84.00
2018-03-12T06:24:21.983Z,96.00
2018-03-12T06:25:21.946Z,108.00
2018-03-12T06:26:21.909Z,112.00
2018-03-12T06:27:21.869Z,124.00
2018-03-12T06:28:21.835Z,128.00
2018-03-12T06:29:21.793Z,136.00
2018-03-12T06:30:21.756Z,144.00
2018-03-12T06:31:21.717Z,152.00
2018-03-12T06:32:21.684Z,160.00
2018-03-12T06:33:21.644Z,168.00
2018-03-12T06:34:21.605Z,180.00
2018-03-12T06:35:21.566Z,192.00
2018-03-12T06:36:21.529Z,208.00
2018-03-12T06:37:21.490Z,212.00
2018-03-12T06:38:21.455Z,224.00
2018-03-12T06:39:21.418Z,228.00
2018-03-12T06:40:21.378Z,232.00
2018-03-12T06:41:21.339Z,236.00
2018-03-12T06:42:21.303Z,232.00
2018-03-12T06:43:21.266Z,216.00
2018-03-12T06:44:21.226Z,200.00
2018-03-12T06:45:21.194Z,188.00
2018-03-12T06:46:21.150Z,168.00
2018-03-12T06:47:21.116Z,160.00
2018-03-12T06:48:21.077Z,152.00
2018-03-12T06:49:21.043Z,152.00
2018-03-12T06:50:21.001Z,152.00
2018-03-12T06:51:20.962Z,156.00
2018-03-12T06:52:20.926Z,160.00
2018-03-12T06:53:20.892Z,164.00
2018-03-12T06:54:20.851Z,168.00
2018-03-12T06:55:20.815Z,176.00
2018-03-12T06:56:20.773Z,188.00
2018-03-12T06:57:20.737Z,196.00
2018-03-12T06:58:20.738Z,216.00
2018-03-12T06:59:20.661Z,228.00
2018-03-12T07:00:20.623Z,236.00
2018-03-12T07:01:20.587Z,256.00
2018-03-12T07:02:20.549Z,272.00
2018-03-12T07:03:20.512Z,292.00
2018-03-12T07:04:20.478Z,312.00
2018-03-12T07:05:20.437Z,324.00
2018-03-12T07:06:20.397Z,336.00
2018-03-12T07:07:20.359Z,348.00
2018-03-12T07:08:20.347Z,356.00
2018-03-12T07:09:20.286Z,356.00
2018-03-12T07:10:20.248Z,352.00
2018-03-12T07:11:20.207Z,356.00
2018-03-12T07:12:20.173Z,356.00
2018-03-12T07:13:20.138Z,356.00
2018-03-12T07:14:20.097Z,364.00
2018-03-12T07:15:20.058Z,368.00
2018-03-12T07:16:20.020Z,372.00
2018-03-12T07:17:20.021Z,372.00
2018-03-12T07:18:19.947Z,372.00
2018-03-12T07:19:19.910Z,384.00
2018-03-12T07:20:19.873Z,400.00
2018-03-12T07:21:19.836Z,412.00
2018-03-12T07:22:19.796Z,428.00
2018-03-12T07:23:19.759Z,444.00
2018-03-12T07:24:19.722Z,460.00
2018-03-12T07:25:19.685Z,472.00
2018-03-12T07:26:19.646Z,480.00
2018-03-12T07:27:19.606Z,500.00
2018-03-12T07:28:19.571Z,516.00
2018-03-12T07:29:19.535Z,520.00
2018-03-12T07:30:19.498Z,548.00
2018-03-12T07:31:19.459Z,564.00
2018-03-12T07:32:19.424Z,584.00
2018-03-12T07:33:19.385Z,616.00
2018-03-12T07:34:19.348Z,648.00
2018-03-12T07:35:19.312Z,692.00
2018-03-12T07:36:19.273Z,728.00
2018-03-12T07:37:19.234Z,760.00
2018-03-12T07:38:19.197Z,788.00
2018-03-12T07:39:19.160Z,784.00
2018-03-12T07:40:19.127Z,784.00
2018-03-12T07:41:19.084Z,792.00
2018-03-12T07:42:19.050Z,804.00
2018-03-12T07:43:19.014Z,836.00
2018-03-12T07:44:18.976Z,860.00
2018-03-12T07:45:18.937Z,904.00
2018-03-12T07:46:18.899Z,940.00
2018-03-12T07:47:18.868Z,948.00
2018-03-12T07:48:18.825Z,936.00
2018-03-12T07:49:18.792Z,924.00
2018-03-12T07:50:18.751Z,932.00
2018-03-12T07:51:18.712Z,904.00
2018-03-12T07:52:18.676Z,868.00
2018-03-12T07:53:18.642Z,844.00
2018-03-12T07:54:18.603Z,856.00
2018-03-12T07:55:18.566Z,852.00
2018-03-12T07:56:18.530Z,856.00
2018-03-12T07:57:18.493Z,868.00
2018-03-12T07:58:18.455Z,876.00
2018-03-12T07:59:18.418Z,876.00
2018-03-12T08:00:18.387Z,868.00
2018-03-12T08:01:18.356Z,856.00
2018-03-12T08:02:18.310Z,852.00
2018-03-12T08:03:18.272Z,876.00
2018-03-12T08:04:18.236Z,908.00
2018-03-12T08:05:18.197Z,960.00
2018-03-12T08:06:18.164Z,996.00
2018-03-12T08:07:18.126Z,1036.00
2018-03-12T08:08:18.087Z,1052.00
2018-03-12T08:09:18.051Z,1048.00
2018-03-12T08:10:18.012Z,1032.00
2018-03-12T08:11:17.980Z,992.00
2018-03-12T08:12:17.939Z,928.00
2018-03-12T08:13:17.904Z,872.00
2018-03-12T08:14:17.864Z,856.00
2018-03-12T08:15:17.827Z,844.00
2018-03-12T08:16:17.822Z,792.00
2018-03-12T08:17:17.756Z,756.00
2018-03-12T08:18:17.719Z,736.00
2018-03-12T08:19:17.684Z,732.00
2018-03-12T08:20:17.644Z,736.00
2018-03-12T08:21:17.608Z,748.00
2018-03-12T08:22:17.572Z,780.00
2018-03-12T08:23:17.534Z,772.00
2018-03-12T08:24:17.498Z,764.00
2018-03-12T08:25:17.461Z,768.00
2018-03-12T08:26:17.424Z,764.00
2018-03-12T08:27:17.384Z,780.00
2018-03-12T08:28:17.354Z,784.00
2018-03-12T08:29:17.314Z,808.00
2018-03-12T08:30:17.279Z,832.00
2018-03-12T08:31:17.240Z,876.00
2018-03-12T08:32:17.204Z,944.00
2018-03-12T08:33:17.170Z,1024.00
2018-03-12T08:34:17.151Z,1092.00
2018-03-12T08:35:17.094Z,1144.00
2018-03-12T08:36:17.056Z,1172.00
2018-03-12T08:37:17.022Z,1216.00
2018-03-12T08:38:16.981Z,1252.00
2018-03-12T08:39:16.946Z,1308.00
2018-03-12T08:40:16.908Z,1336.00
2018-03-12T08:41:16.872Z,1396.00
2018-03-12T08:42:16.834Z,1448.00
2018-03-12T08:43:16.801Z,1452.00
2018-03-12T08:44:16.763Z,1464.00
2018-03-12T08:45:16.724Z,1456.00
2018-03-12T08:46:16.689Z,1448.00
2018-03-12T08:47:16.652Z,1400.00
2018-03-12T08:48:16.615Z,1344.00
2018-03-12T08:49:16.581Z,1300.00
2018-03-12T08:50:16.556Z,1264.00
2018-03-12T08:51:16.522Z,1252.00
2018-03-12T08:52:16.470Z,1208.00
2018-03-12T08:53:16.434Z,1152.00
2018-03-12T08:54:16.398Z,1088.00
2018-03-12T08:55:16.358Z,1024.00
2018-03-12T08:56:16.325Z,976.00
2018-03-12T08:57:16.289Z,984.00
2018-03-12T08:58:16.254Z,1012.00
2018-03-12T08:59:16.210Z,1092.00
2018-03-12T09:00:16.178Z,1172.00
2018-03-12T09:01:16.145Z,1252.00
2018-03-12T09:02:16.113Z,1312.00
2018-03-12T09:03:16.069Z,1372.00
2018-03-12T09:04:16.076Z,1396.00
2018-03-12T09:05:15.996Z,1392.00
2018-03-12T09:06:15.959Z,1356.00
2018-03-12T09:07:15.924Z,1316.00
2018-03-12T09:08:15.889Z,1304.00
2018-03-12T09:09:15.851Z,1296.00
2018-03-12T09:10:15.819Z,1268.00
2018-03-12T09:11:15.779Z,1296.00
2018-03-12T09:12:15.743Z,1340.00
2018-03-12T09:13:15.705Z,1436.00
2018-03-12T09:14:15.672Z,1556.00
2018-03-12T09:15:15.633Z,1660.00
2018-03-12T09:16:15.594Z,1728.00
2018-03-12T09:17:15.560Z,1724.00
2018-03-12T09:18:22.189Z,1668.00
2018-03-12T09:19:15.487Z,1612.00
2018-03-12T09:20:15.453Z,1580.00
2018-03-12T09:21:15.415Z,1520.00
2018-03-12T09:22:15.378Z,1492.00
2018-03-12T09:23:15.342Z,1480.00
2018-03-12T09:24:15.306Z,1488.00
2018-03-12T09:25:15.269Z,1532.00
2018-03-12T09:26:15.242Z,1560.00
2018-03-12T09:27:15.198Z,1648.00
2018-03-12T09:28:15.163Z,1744.00
2018-03-12T09:29:15.127Z,1864.00
2018-03-12T09:30:15.102Z,2036.00
2018-03-12T09:31:15.052Z,2232.00
2018-03-12T09:32:15.020Z,2420.00
2018-03-12T09:33:15.022Z,2532.00
2018-03-12T09:34:14.945Z,2560.00
2018-03-12T09:35:14.909Z,2560.00
2018-03-12T09:36:14.872Z,2572.00
2018-03-12T09:37:14.836Z,2652.00
2018-03-12T09:38:14.806Z,2700.00
2018-03-12T09:39:14.766Z,2664.00
2018-03-12T09:40:14.731Z,2624.00
2018-03-12T09:41:14.696Z,2636.00
2018-03-12T09:42:14.659Z,2644.00
2018-03-12T09:43:14.625Z,2676.00
2018-03-12T09:44:14.607Z,2760.00
2018-03-12T09:45:14.554Z,2960.00
2018-03-12T09:46:14.517Z,3184.00
2018-03-12T09:47:14.484Z,3440.00
2018-03-12T09:48:14.449Z,3748.00
2018-03-12T09:49:14.414Z,4072.00
2018-03-12T09:50:14.375Z,4064.00
2018-03-12T09:51:14.340Z,4168.00
2018-03-12T09:52:14.309Z,4264.00
2018-03-12T09:53:14.275Z,4928.00
2018-03-12T09:54:14.234Z,4448.00
2018-03-12T09:55:14.206Z,4132.00
2018-03-12T09:56:14.169Z,4184.00
2018-03-12T09:57:14.136Z,4276.00
2018-03-12T09:58:14.104Z,4360.00
2018-03-12T09:59:14.066Z,4396.00
2018-03-12T10:00:14.032Z,4712.00
2018-03-12T10:01:14.002Z,4420.00
2018-03-12T10:02:13.964Z,4220.00
2018-03-12T10:03:13.932Z,4376.00
2018-03-12T10:04:13.897Z,4672.00
2018-03-12T10:05:13.864Z,5516.00
2018-03-12T10:06:13.831Z,5704.00
2018-03-12T10:07:13.798Z,5924.00
2018-03-12T10:08:13.769Z,5664.00
2018-03-12T10:09:13.733Z,5148.00
2018-03-12T10:10:13.701Z,5076.00
2018-03-12T10:11:13.662Z,4848.00
2018-03-12T10:12:13.630Z,5056.00
2018-03-12T10:13:13.602Z,9580.00
2018-03-12T10:14:13.571Z,6420.00
2018-03-12T10:15:13.538Z,9348.00
2018-03-12T10:16:13.544Z,9064.00
2018-03-12T10:17:13.474Z,8940.00
2018-03-12T10:18:13.483Z,9328.00
2018-03-12T10:19:13.482Z,9800.00
2018-03-12T10:20:13.386Z,9496.00
2018-03-12T10:21:13.358Z,9328.00
2018-03-12T10:22:13.333Z,10460.00
2018-03-12T10:23:13.301Z,8056.00
2018-03-12T10:24:13.278Z,10296.00
2018-03-12T10:25:13.250Z,10636.00
2018-03-12T10:26:13.223Z,10720.00
2018-03-12T10:27:13.200Z,10800.00
2018-03-12T10:28:13.174Z,10068.00
2018-03-12T10:29:13.152Z,6616.00
2018-03-12T10:30:13.129Z,5636.00
2018-03-12T10:31:13.103Z,5692.00
2018-03-12T10:32:13.076Z,5980.00
2018-03-12T10:33:13.054Z,7020.00
2018-03-12T10:34:13.029Z,6924.00
2018-03-12T10:35:13.010Z,6336.00
2018-03-12T10:36:12.980Z,7412.00
2018-03-12T10:37:12.955Z,11712.00
2018-03-12T10:38:12.929Z,10804.00
2018-03-12T10:39:12.907Z,11268.00
2018-03-12T10:40:12.897Z,4252.00
2018-03-12T10:41:12.854Z,4112.00
2018-03-12T10:42:12.841Z,5280.00
2018-03-12T10:43:12.805Z,4980.00
2018-03-12T10:44:12.779Z,5260.00
2018-03-12T10:45:12.753Z,5140.00
2018-03-12T10:46:12.728Z,5056.00
2018-03-12T10:47:12.702Z,5252.00
2018-03-12T10:48:12.677Z,5116.00
2018-03-12T10:49:12.645Z,5460.00
2018-03-12T10:50:12.620Z,5728.00
2018-03-12T10:51:12.616Z,6032.00
2018-03-12T10:52:12.567Z,6620.00
2018-03-12T10:53:12.538Z,6780.00
2018-03-12T10:54:12.509Z,7816.00
2018-03-12T10:55:12.481Z,11468.00
2018-03-12T10:56:12.451Z,12432.00
2018-03-12T10:57:12.424Z,5696.00
2018-03-12T10:58:12.400Z,5924.00
2018-03-12T10:59:12.370Z,4388.00
2018-03-12T11:00:12.341Z,4216.00
2018-03-12T11:01:12.315Z,3948.00
2018-03-12T11:02:12.286Z,3556.00
2018-03-12T11:03:12.257Z,3120.00
2018-03-12T11:04:12.231Z,2908.00
2018-03-12T11:05:12.208Z,2756.00
2018-03-12T11:06:12.173Z,2628.00
2018-03-12T11:07:12.160Z,2688.00
2018-03-12T11:08:12.111Z,3112.00
2018-03-12T11:09:12.084Z,3616.00
2018-03-12T11:10:12.053Z,4204.00
2018-03-12T11:11:12.097Z,4428.00
2018-03-12T11:12:11.993Z,4624.00
2018-03-12T11:13:11.962Z,4664.00
2018-03-12T11:14:11.933Z,4280.00
2018-03-12T11:15:11.903Z,4192.00
2018-03-12T11:16:11.870Z,5200.00
2018-03-12T11:17:11.839Z,3244.00
2018-03-12T11:18:11.807Z,2852.00
2018-03-12T11:19:11.778Z,2612.00
2018-03-12T11:20:11.748Z,2452.00
2018-03-12T11:21:11.717Z,2228.00
2018-03-12T11:22:11.685Z,2072.00
2018-03-12T11:23:11.654Z,1916.00
2018-03-12T11:24:11.620Z,1804.00
2018-03-12T11:25:11.591Z,1716.00
2018-03-12T11:26:11.556Z,1696.00
2018-03-12T11:27:11.544Z,1688.00
2018-03-12T11:28:11.490Z,1720.00
2018-03-12T11:29:11.459Z,1740.00
2018-03-12T11:30:11.429Z,1748.00
2018-03-12T11:31:11.401Z,1816.00
2018-03-12T11:32:11.379Z,1856.00
2018-03-12T11:33:11.332Z,1916.00
2018-03-12T11:34:11.298Z,2056.00
2018-03-12T11:35:11.266Z,2276.00
2018-03-12T11:36:11.237Z,2536.00
2018-03-12T11:37:11.202Z,2848.00
2018-03-12T11:38:11.167Z,3156.00
2018-03-12T11:39:11.134Z,3532.00
2018-03-12T11:40:11.104Z,3936.00
2018-03-12T11:41:11.071Z,4480.00
2018-03-12T11:42:11.040Z,4848.00
2018-03-12T11:43:11.004Z,4856.00
2018-03-12T11:44:10.974Z,17568.00
2018-03-12T11:45:10.940Z,23712.00
2018-03-12T11:46:10.961Z,24192.00
2018-03-12T11:47:10.876Z,24256.00
2018-03-12T11:48:10.849Z,23584.00
2018-03-12T11:49:10.821Z,23712.00
2018-03-12T11:50:10.790Z,5088.00
2018-03-12T11:51:10.763Z,3552.00
2018-03-12T11:52:10.738Z,2972.00
2018-03-12T11:53:10.710Z,2648.00
2018-03-12T11:54:10.681Z,2652.00
2018-03-12T11:55:10.657Z,2384.00
2018-03-12T11:56:10.626Z,2220.00
2018-03-12T11:57:10.595Z,2172.00
2018-03-12T11:58:10.573Z,2064.00
2018-03-12T11:59:10.539Z,2128.00
2018-03-12T12:00:10.513Z,2384.00
2018-03-12T12:01:10.484Z,3216.00
2018-03-12T12:02:10.453Z,4280.00
2018-03-12T12:03:11.034Z,6012.00
2018-03-12T12:04:10.391Z,15552.00
2018-03-12T12:05:10.361Z,17440.00
2018-03-12T12:06:10.331Z,3860.00
2018-03-12T12:07:10.300Z,3024.00
2018-03-12T12:08:10.270Z,2564.00
2018-03-12T12:09:10.243Z,2320.00
2018-03-12T12:10:10.210Z,2188.00
2018-03-12T12:11:10.179Z,2164.00
2018-03-12T12:12:10.335Z,2244.00
2018-03-12T12:13:10.119Z,2348.00
2018-03-12T12:14:10.088Z,2332.00
2018-03-12T12:15:10.060Z,2324.00
2018-03-12T12:16:10.025Z,2288.00
2018-03-12T12:17:09.992Z,2364.00
2018-03-12T12:18:09.960Z,2548.00
2018-03-12T12:19:09.963Z,2772.00
2018-03-12T12:20:09.898Z,2792.00
2018-03-12T12:21:09.868Z,2800.00
2018-03-12T12:22:09.834Z,2596.00
2018-03-12T12:23:09.803Z,2436.00
2018-03-12T12:24:09.772Z,2436.00
2018-03-12T12:25:09.742Z,2404.00
2018-03-12T12:26:09.710Z,2520.00
2018-03-12T12:27:09.733Z,2616.00
2018-03-12T12:28:09.646Z,2816.00
2018-03-12T12:29:09.619Z,2992.00
2018-03-12T12:30:09.582Z,2928.00
2018-03-12T12:31:09.554Z,2936.00
2018-03-12T12:32:09.518Z,3248.00
2018-03-12T12:33:09.488Z,4180.00
2018-03-12T12:34:09.508Z,6228.00
2018-03-12T12:35:09.425Z,41824.00
2018-03-12T12:36:09.393Z,6848.00
2018-03-12T12:37:09.360Z,12764.00
2018-03-12T12:38:09.329Z,8196.00
2018-03-12T12:39:09.298Z,10480.00
2018-03-12T12:40:09.268Z,5892.00
2018-03-12T12:41:09.238Z,5244.00
2018-03-12T12:42:09.208Z,5000.00
2018-03-12T12:43:09.175Z,4984.00